Terminal Aerodrome Forecast
Issued by NWS Memphis, TN

Home | Current Version | Previous Version | Text Only | Print | Product List | Glossary On
Versions: 1 2 3 4 5 6 7 8 9 10 11 12 13 14 15 16 17 18 19 20 21 22 23 24 25
073
FTUS44 KMEG 312321
TAFMEM
TAF
KMEM 312321Z 0100/0124 01006KT P6SM SCT250
     FM011300 03008KT P6SM VCSH SCT025 BKN250
      TEMPO 0113/0117 BKN025
     FM011700 02010KT P6SM VCSH BKN035 BKN150=

USA.gov is the U.S. government's official web portal to all federal, state and local government web resources and services.